Airport details for: EHRD (Netherlands)

Metar

EHRD 260825Z AUTO 27006KT 230V310 9999 FEW025 19/14 Q1010 NOSIG

General details

ICAO: EHRD
IATA: RTM
Name (city): Rotterdam
Major:
Country: Netherlands
vACC: Dutch VACC
Description:
Scenery links:
FS9 scenery: Download
FSX/P3D scenery: Download
XP scenery:
Elevation: -14 ft.
Transition altitude: 3000 ft.
MSA: 7200 ft.
Latitude: 51.956945
Longitude: 4.437222
EHRD Charts
EHRD Notams
EHRD Online stations

Runways

Number Course Length Elevation Lat Lon ILS ILS freq ILS FAC GP
06 57° 7218ft / 2200 m -14ft 51.953064 4.430681 110.9 57° 3.0°
24 237° 7218ft / 2200 m -15ft 51.961859 4.452692 110.9 237° 3.0°